createdAt,value
2022-08-19T00:00:21.941Z,7.40
2022-08-19T00:02:52.891Z,5.77
2022-08-19T00:05:24.833Z,6.57
2022-08-19T00:07:55.526Z,6.73
2022-08-19T00:10:28.248Z,7.13
2022-08-19T00:12:59.028Z,6.40
2022-08-19T00:15:29.777Z,7.60
2022-08-19T00:18:00.492Z,6.87
2022-08-19T00:20:31.417Z,8.10
2022-08-19T00:23:02.140Z,7.00
2022-08-19T00:25:34.478Z,7.30
2022-08-19T00:28:05.265Z,6.90
2022-08-19T00:30:36.080Z,7.10
2022-08-19T00:33:07.023Z,6.33
2022-08-19T00:35:39.364Z,7.10
2022-08-19T00:38:10.154Z,7.50
2022-08-19T00:40:42.527Z,7.67
2022-08-19T00:43:14.862Z,8.40
2022-08-19T00:45:46.049Z,7.73
2022-08-19T00:48:17.789Z,7.37
2022-08-19T00:50:52.002Z,7.67
2022-08-19T00:53:28.156Z,7.27
2022-08-19T00:56:04.954Z,8.07
2022-08-19T00:58:37.849Z,7.80
2022-08-19T01:01:09.618Z,8.30
2022-08-19T01:03:58.218Z,6.70
2022-08-19T01:06:30.110Z,7.87
2022-08-19T01:09:00.842Z,7.97
2022-08-19T01:11:35.267Z,7.47
2022-08-19T01:14:06.503Z,7.07
2022-08-19T01:16:38.984Z,7.97
2022-08-19T01:19:16.941Z,7.30
2022-08-19T01:21:53.711Z,7.40
2022-08-19T01:24:26.093Z,7.80
2022-08-19T01:26:56.903Z,8.17
2022-08-19T01:29:27.714Z,7.60
2022-08-19T01:31:59.146Z,7.57
2022-08-19T01:34:29.887Z,8.00
2022-08-19T01:37:00.636Z,7.90
2022-08-19T01:39:33.006Z,9.20
2022-08-19T01:42:04.970Z,7.93
2022-08-19T01:44:35.784Z,8.40
2022-08-19T01:47:07.383Z,8.00
2022-08-19T01:49:38.131Z,7.97
2022-08-19T01:52:09.693Z,8.17
2022-08-19T01:54:42.055Z,7.77
2022-08-19T01:57:16.530Z,7.30
2022-08-19T01:59:49.012Z,7.97
2022-08-19T02:02:19.963Z,7.33
2022-08-19T02:04:50.758Z,6.50
2022-08-19T02:07:24.570Z,6.43
2022-08-19T02:09:56.946Z,6.97
2022-08-19T02:12:27.692Z,6.93
2022-08-19T02:14:58.402Z,7.40
2022-08-19T02:17:30.633Z,8.80
2022-08-19T02:20:01.740Z,8.90
2022-08-19T02:22:32.509Z,7.43
2022-08-19T02:25:06.672Z,7.53
2022-08-19T02:27:37.390Z,7.40
2022-08-19T02:30:10.425Z,7.90
2022-08-19T02:32:45.191Z,8.20
2022-08-19T02:35:16.788Z,7.73
2022-08-19T02:38:05.159Z,7.93
2022-08-19T02:40:37.749Z,7.93
2022-08-19T02:43:11.008Z,8.40
2022-08-19T02:45:42.813Z,8.07
2022-08-19T02:48:21.441Z,8.10
2022-08-19T02:50:57.071Z,7.90
2022-08-19T02:53:30.511Z,7.27
2022-08-19T02:56:02.940Z,8.50
2022-08-19T02:58:33.707Z,7.17
2022-08-19T03:01:04.618Z,7.30
2022-08-19T03:03:35.658Z,7.53
2022-08-19T03:06:14.613Z,8.10
2022-08-19T03:08:47.948Z,8.60
2022-08-19T03:11:21.833Z,8.50
2022-08-19T03:13:53.064Z,7.90
2022-08-19T03:16:25.959Z,8.47
2022-08-19T03:19:01.690Z,8.17
2022-08-19T03:21:35.500Z,9.20
2022-08-19T03:24:09.094Z,9.90
2022-08-19T03:26:43.568Z,9.90
2022-08-19T03:29:14.635Z,8.80
2022-08-19T03:31:56.577Z,10.30
2022-08-19T03:34:29.484Z,10.00
2022-08-19T03:37:01.931Z,9.10
2022-08-19T03:39:32.901Z,8.67
2022-08-19T03:42:45.363Z,8.80
2022-08-19T03:44:56.308Z,8.97
2022-08-19T03:47:27.356Z,9.17
2022-08-19T03:49:58.122Z,9.27
2022-08-19T03:52:28.915Z,9.97
2022-08-19T03:54:59.808Z,9.27
2022-08-19T03:57:32.367Z,8.30
2022-08-19T04:00:12.536Z,9.40
2022-08-19T04:02:58.564Z,9.80
2022-08-19T04:05:31.860Z,9.40
2022-08-19T04:08:02.589Z,9.47
2022-08-19T04:10:33.315Z,8.53
2022-08-19T04:13:05.916Z,8.30
2022-08-19T04:15:41.301Z,8.20
2022-08-19T04:18:12.803Z,8.97
2022-08-19T04:20:48.208Z,9.20
2022-08-19T04:23:19.498Z,9.03
2022-08-19T04:25:50.196Z,9.23
2022-08-19T04:28:22.560Z,8.20
2022-08-19T04:30:55.225Z,8.90
2022-08-19T04:33:28.479Z,9.50
2022-08-19T04:36:00.036Z,9.80
2022-08-19T04:38:30.796Z,9.20
2022-08-19T04:41:18.638Z,9.83
2022-08-19T04:43:51.552Z,10.07
2022-08-19T04:46:39.135Z,10.00
2022-08-19T04:49:13.718Z,8.83
2022-08-19T04:51:46.787Z,9.20
2022-08-19T04:54:23.970Z,9.30
2022-08-19T04:57:09.074Z,8.87
2022-08-19T04:59:42.326Z,10.20
2022-08-19T05:02:14.107Z,9.67
2022-08-19T05:04:44.823Z,10.80
2022-08-19T05:07:15.554Z,10.50
2022-08-19T05:09:57.652Z,10.20
2022-08-19T05:12:30.523Z,10.60
2022-08-19T05:15:03.082Z,10.50
2022-08-19T05:17:38.267Z,9.60
2022-08-19T05:20:27.824Z,10.10
2022-08-19T05:22:58.573Z,11.13
2022-08-19T05:25:29.392Z,9.50
2022-08-19T05:28:00.186Z,10.73
2022-08-19T05:30:46.557Z,10.90
2022-08-19T05:33:18.090Z,9.73
2022-08-19T05:35:50.111Z,9.70
2022-08-19T05:38:21.609Z,10.43
2022-08-19T05:40:52.532Z,9.93
2022-08-19T05:43:23.308Z,10.00
2022-08-19T05:45:55.627Z,11.20
2022-08-19T05:48:26.506Z,10.77
2022-08-19T05:50:57.258Z,10.73
2022-08-19T05:53:27.980Z,10.63
2022-08-19T05:55:58.732Z,10.13
2022-08-19T05:58:29.698Z,10.60
2022-08-19T06:01:06.109Z,10.50
2022-08-19T06:03:38.084Z,9.20
2022-08-19T06:06:09.699Z,10.07
2022-08-19T06:08:40.837Z,9.87
2022-08-19T06:11:19.544Z,10.77
2022-08-19T06:13:59.372Z,9.90
2022-08-19T06:16:35.711Z,9.00
2022-08-19T06:19:09.343Z,9.37
2022-08-19T06:21:42.674Z,10.10
2022-08-19T06:24:17.787Z,9.60
2022-08-19T06:26:50.749Z,10.20
2022-08-19T06:29:26.102Z,10.60
2022-08-19T06:32:00.175Z,9.47
2022-08-19T06:34:32.756Z,9.53
2022-08-19T06:37:04.712Z,11.07
2022-08-19T06:39:42.293Z,10.77
2022-08-19T06:42:17.939Z,11.27
2022-08-19T06:44:53.164Z,10.30
2022-08-19T06:47:28.938Z,9.83
2022-08-19T06:50:05.585Z,10.23
2022-08-19T06:52:38.275Z,10.30
2022-08-19T06:55:09.944Z,9.77
2022-08-19T06:57:40.680Z,10.50
2022-08-19T07:00:14.948Z,10.30
2022-08-19T07:02:53.212Z,9.77
2022-08-19T07:05:28.108Z,10.20
2022-08-19T07:08:04.780Z,10.13
2022-08-19T07:10:36.862Z,9.97
2022-08-19T07:13:07.684Z,10.20
2022-08-19T07:15:40.123Z,8.90
2022-08-19T07:18:12.487Z,9.60
2022-08-19T07:20:44.835Z,10.53
2022-08-19T07:23:16.767Z,10.40
2022-08-19T07:25:53.095Z,10.20
2022-08-19T07:28:25.114Z,11.47
2022-08-19T07:30:58.447Z,9.20
2022-08-19T07:33:34.508Z,10.40
2022-08-19T07:36:05.253Z,10.00
2022-08-19T07:38:36.934Z,9.87
2022-08-19T07:41:07.764Z,10.97
2022-08-19T07:43:39.004Z,9.90
2022-08-19T07:48:43.829Z,10.17
2022-08-19T07:51:36.704Z,10.63
2022-08-19T07:54:08.472Z,11.00
2022-08-19T07:56:39.196Z,9.80
2022-08-19T07:59:10.910Z,10.40
2022-08-19T08:01:42.744Z,10.67
2022-08-19T08:04:32.109Z,10.47
2022-08-19T08:07:19.968Z,10.37
2022-08-19T08:09:51.103Z,10.40
2022-08-19T08:12:34.377Z,10.73
2022-08-19T08:15:12.692Z,11.10
2022-08-19T08:17:51.459Z,10.47
2022-08-19T08:20:24.497Z,10.50
2022-08-19T08:23:11.882Z,9.70
2022-08-19T08:25:42.739Z,10.07
2022-08-19T08:28:17.737Z,10.30
2022-08-19T08:30:50.682Z,9.27
2022-08-19T08:33:33.306Z,9.77
2022-08-19T08:36:09.357Z,11.27
2022-08-19T08:38:42.927Z,10.10
2022-08-19T08:41:22.748Z,10.30
2022-08-19T08:43:55.985Z,9.83
2022-08-19T08:46:33.253Z,8.40
2022-08-19T08:49:11.440Z,11.00
2022-08-19T08:51:56.093Z,10.47
2022-08-19T08:54:36.947Z,10.00
2022-08-19T08:57:13.691Z,9.67
2022-08-19T08:59:46.888Z,11.07
2022-08-19T09:02:17.772Z,8.83
2022-08-19T09:04:49.381Z,9.40
2022-08-19T09:07:35.798Z,10.43
2022-08-19T09:10:13.822Z,10.33
2022-08-19T09:12:57.258Z,10.60
2022-08-19T09:15:36.714Z,10.50
2022-08-19T09:18:08.169Z,10.10
2022-08-19T09:20:46.284Z,11.10
2022-08-19T09:23:19.127Z,10.97
2022-08-19T09:25:58.524Z,10.60
2022-08-19T09:28:30.289Z,9.67
2022-08-19T09:31:03.179Z,8.77
2022-08-19T09:33:34.591Z,8.17
2022-08-19T09:36:10.495Z,9.53
2022-08-19T09:38:43.880Z,8.13
2022-08-19T09:41:17.041Z,6.97
2022-08-19T09:43:53.796Z,7.17
2022-08-19T09:46:25.226Z,6.30
2022-08-19T09:48:58.637Z,5.50
2022-08-19T09:51:37.442Z,5.80
2022-08-19T09:54:11.496Z,4.90
2022-08-19T09:56:42.486Z,5.03
2022-08-19T09:59:13.835Z,5.17
2022-08-19T10:01:44.671Z,5.13
2022-08-19T10:04:20.620Z,4.63
2022-08-19T10:06:55.374Z,3.50
2022-08-19T10:09:34.540Z,4.20
2022-08-19T10:12:07.080Z,4.20
2022-08-19T10:14:43.000Z,4.70
2022-08-19T10:17:19.165Z,4.03
2022-08-19T10:19:55.051Z,2.63
2022-08-19T10:22:26.948Z,3.13
2022-08-19T10:24:59.339Z,2.60
2022-08-19T10:27:32.168Z,3.20
2022-08-19T10:30:03.196Z,3.00
2022-08-19T10:32:34.611Z,2.50
2022-08-19T10:35:07.644Z,2.90
2022-08-19T10:37:48.415Z,2.80
2022-08-19T10:40:30.223Z,2.63
2022-08-19T10:43:01.036Z,2.80
2022-08-19T10:45:31.771Z,3.20
2022-08-19T10:48:03.636Z,2.70
2022-08-19T10:50:51.342Z,2.63
2022-08-19T10:53:27.159Z,2.53
2022-08-19T10:56:16.910Z,2.43
2022-08-19T10:58:47.909Z,3.07
2022-08-19T11:01:18.659Z,2.70
2022-08-19T11:03:49.381Z,2.97
2022-08-19T11:06:20.661Z,2.50
2022-08-19T11:08:51.443Z,2.50
2022-08-19T11:11:24.432Z,2.50
2022-08-19T11:13:55.566Z,2.10
2022-08-19T11:16:28.282Z,2.00
2022-08-19T11:19:01.599Z,2.20
2022-08-19T11:21:34.086Z,2.13
2022-08-19T11:24:07.654Z,2.00
2022-08-19T11:26:40.745Z,2.10
2022-08-19T11:29:14.624Z,2.27
2022-08-19T11:31:47.475Z,1.87
2022-08-19T11:34:21.656Z,2.00
2022-08-19T11:36:53.552Z,1.90
2022-08-19T11:39:25.776Z,1.70
2022-08-19T11:41:58.477Z,1.93
2022-08-19T11:44:32.207Z,1.80
2022-08-19T11:47:09.439Z,1.67
2022-08-19T11:49:40.227Z,1.80
2022-08-19T11:52:10.940Z,1.57
2022-08-19T11:54:41.774Z,1.50
2022-08-19T11:57:14.201Z,1.70
2022-08-19T11:59:44.962Z,1.20
2022-08-19T12:02:15.779Z,1.10
2022-08-19T12:04:46.507Z,1.80
2022-08-19T12:07:17.212Z,1.57
2022-08-19T12:09:48.640Z,1.57
2022-08-19T12:12:21.317Z,1.30
2022-08-19T12:14:58.250Z,1.20
2022-08-19T12:17:32.611Z,1.40
2022-08-19T12:20:03.891Z,1.17
2022-08-19T12:22:34.628Z,1.30
2022-08-19T12:25:05.454Z,1.33
2022-08-19T12:27:40.634Z,1.17
2022-08-19T12:30:15.287Z,0.90
2022-08-19T12:32:45.998Z,0.90
2022-08-19T12:35:16.789Z,1.10
2022-08-19T12:37:57.427Z,1.40
2022-08-19T12:40:28.517Z,1.07
2022-08-19T12:43:00.947Z,1.00
2022-08-19T12:45:31.772Z,1.20
2022-08-19T12:48:02.563Z,1.10
2022-08-19T12:50:53.277Z,0.90
2022-08-19T12:53:24.000Z,0.93
2022-08-19T12:55:59.799Z,0.80
2022-08-19T12:58:32.495Z,0.70
2022-08-19T13:01:03.270Z,0.93
2022-08-19T13:03:37.460Z,1.10
2022-08-19T13:06:11.952Z,0.73
2022-08-19T13:08:43.150Z,0.80
2022-08-19T13:11:19.265Z,0.70
2022-08-19T13:13:55.430Z,0.70
2022-08-19T13:16:26.168Z,0.80
2022-08-19T13:18:57.708Z,0.90
2022-08-19T13:21:31.734Z,0.70
2022-08-19T13:24:02.960Z,0.90
2022-08-19T13:26:33.917Z,0.37
2022-08-19T13:29:22.935Z,0.90
2022-08-19T13:32:10.616Z,0.70
2022-08-19T13:34:48.447Z,0.70
2022-08-19T13:37:39.150Z,0.70
2022-08-19T13:40:16.191Z,0.53
2022-08-19T13:42:49.171Z,0.87
2022-08-19T13:45:23.958Z,0.70
2022-08-19T13:47:59.665Z,0.60
2022-08-19T13:50:33.167Z,0.90
2022-08-19T13:53:05.867Z,0.80
2022-08-19T13:55:37.381Z,0.80
2022-08-19T13:58:08.175Z,0.80
2022-08-19T14:00:42.703Z,0.73
2022-08-19T14:03:13.794Z,0.53
2022-08-19T14:05:44.574Z,0.70
2022-08-19T14:08:15.990Z,0.60
2022-08-19T14:10:47.467Z,0.90
2022-08-19T14:13:20.537Z,0.40
2022-08-19T14:15:53.829Z,0.63
2022-08-19T14:18:26.016Z,0.80
2022-08-19T14:20:59.368Z,0.80
2022-08-19T14:23:30.219Z,0.57
2022-08-19T14:26:08.789Z,0.60
2022-08-19T14:28:39.614Z,0.80
2022-08-19T14:31:12.067Z,0.80
2022-08-19T14:33:43.148Z,0.53
2022-08-19T14:36:14.937Z,0.80
2022-08-19T14:38:47.350Z,0.70
2022-08-19T14:41:21.102Z,0.80
2022-08-19T14:43:53.635Z,0.83
2022-08-19T14:46:28.279Z,0.50
2022-08-19T14:49:00.688Z,0.70
2022-08-19T14:51:31.701Z,0.83
2022-08-19T14:54:02.477Z,0.80
2022-08-19T14:56:33.859Z,0.80
2022-08-19T14:59:04.680Z,0.70
2022-08-19T15:01:37.087Z,0.93
2022-08-19T15:04:08.144Z,0.60
2022-08-19T15:06:39.898Z,0.60
2022-08-19T15:09:11.665Z,0.60
2022-08-19T15:11:42.527Z,0.90
2022-08-19T15:14:15.605Z,0.40
2022-08-19T15:16:47.972Z,1.10
2022-08-19T15:19:19.415Z,0.80
2022-08-19T15:21:50.759Z,0.83
2022-08-19T15:24:21.548Z,0.70
2022-08-19T15:26:52.301Z,0.80
2022-08-19T15:29:23.559Z,0.63
2022-08-19T15:31:57.064Z,0.67
2022-08-19T15:34:29.972Z,0.73
2022-08-19T15:37:01.037Z,0.63
2022-08-19T15:39:32.215Z,0.80
2022-08-19T15:42:03.786Z,1.00
2022-08-19T15:44:37.908Z,0.70
2022-08-19T15:47:10.576Z,1.10
2022-08-19T15:49:41.397Z,1.10
2022-08-19T15:52:12.179Z,0.80
2022-08-19T15:54:42.949Z,0.90
2022-08-19T15:57:30.496Z,1.07
2022-08-19T16:00:18.122Z,1.00
2022-08-19T16:03:06.980Z,1.10
2022-08-19T16:05:55.272Z,0.90
2022-08-19T16:08:26.014Z,1.00
2022-08-19T16:10:57.481Z,1.17
2022-08-19T16:13:28.224Z,1.00
2022-08-19T16:15:58.960Z,0.70
2022-08-19T16:18:31.634Z,0.83
2022-08-19T16:21:02.364Z,0.83
2022-08-19T16:23:33.300Z,1.00
2022-08-19T16:26:04.437Z,0.80
2022-08-19T16:28:35.164Z,0.80
2022-08-19T16:31:05.972Z,0.97
2022-08-19T16:33:38.348Z,1.10
2022-08-19T16:36:10.111Z,0.80
2022-08-19T16:38:40.880Z,1.27
2022-08-19T16:41:12.484Z,1.20
2022-08-19T16:43:44.051Z,1.10
2022-08-19T16:46:16.016Z,1.20
2022-08-19T16:48:53.542Z,0.80
2022-08-19T16:51:24.988Z,1.03
2022-08-19T16:53:55.835Z,1.23
2022-08-19T16:56:28.507Z,0.87
2022-08-19T16:59:00.663Z,1.00
2022-08-19T17:01:32.262Z,0.90
2022-08-19T17:04:04.896Z,1.20
2022-08-19T17:06:37.617Z,0.87
2022-08-19T17:09:09.617Z,1.27
2022-08-19T17:11:40.371Z,1.07
2022-08-19T17:14:11.086Z,0.90
2022-08-19T17:16:41.861Z,1.10
2022-08-19T17:19:14.202Z,1.20
2022-08-19T17:21:44.966Z,1.10
2022-08-19T17:24:15.702Z,0.97
2022-08-19T17:26:46.547Z,1.17
2022-08-19T17:29:17.550Z,1.33
2022-08-19T17:31:48.272Z,1.60
2022-08-19T17:34:21.671Z,1.33
2022-08-19T17:36:52.425Z,0.97
2022-08-19T17:39:23.484Z,1.00
2022-08-19T17:41:54.299Z,1.10
2022-08-19T17:44:26.343Z,1.20
2022-08-19T17:46:57.183Z,1.40
2022-08-19T17:49:29.616Z,1.77
2022-08-19T17:52:05.277Z,1.70
2022-08-19T17:54:40.202Z,2.23
2022-08-19T17:57:10.938Z,1.77
2022-08-19T17:59:41.725Z,1.90
2022-08-19T18:02:14.424Z,1.90
2022-08-19T18:04:48.790Z,1.80
2022-08-19T18:07:22.158Z,1.73
2022-08-19T18:09:54.709Z,1.83
2022-08-19T18:12:27.447Z,2.10
2022-08-19T18:14:58.214Z,2.23
2022-08-19T18:17:28.968Z,1.73
2022-08-19T18:20:01.643Z,1.33
2022-08-19T18:22:37.287Z,1.47
2022-08-19T18:25:12.232Z,1.60
2022-08-19T18:27:44.222Z,1.60
2022-08-19T18:30:16.038Z,1.67
2022-08-19T18:32:50.352Z,1.80
2022-08-19T18:35:30.555Z,1.20
2022-08-19T18:38:05.596Z,1.80
2022-08-19T18:40:53.346Z,1.70
2022-08-19T18:43:40.716Z,1.20
2022-08-19T18:46:28.101Z,1.80
2022-08-19T18:49:06.664Z,2.00
2022-08-19T18:51:39.124Z,2.30
2022-08-19T18:54:09.855Z,1.73
2022-08-19T18:56:44.465Z,2.03
2022-08-19T18:59:20.862Z,1.70
2022-08-19T19:01:53.053Z,1.27
2022-08-19T19:04:25.873Z,1.90
2022-08-19T19:06:58.797Z,2.43
2022-08-19T19:09:30.490Z,1.97
2022-08-19T19:12:02.965Z,2.67
2022-08-19T19:14:51.229Z,1.87
2022-08-19T19:17:27.845Z,1.80
2022-08-19T19:19:58.605Z,1.73
2022-08-19T19:22:30.962Z,2.07
2022-08-19T19:25:01.828Z,2.10
2022-08-19T19:27:32.647Z,2.10
2022-08-19T19:30:03.479Z,1.93
2022-08-19T19:32:39.351Z,2.40
2022-08-19T19:35:11.899Z,2.10
2022-08-19T19:37:46.019Z,2.17
2022-08-19T19:40:16.836Z,2.77
2022-08-19T19:42:48.906Z,2.20
2022-08-19T19:45:20.478Z,1.97
2022-08-19T19:47:52.296Z,1.90
2022-08-19T19:50:23.175Z,2.40
2022-08-19T19:52:56.067Z,1.80
2022-08-19T19:55:27.415Z,2.20
2022-08-19T19:57:58.777Z,2.57
2022-08-19T20:00:29.717Z,1.87
2022-08-19T20:03:00.893Z,1.80
2022-08-19T20:05:32.023Z,1.67
2022-08-19T20:08:35.749Z,1.77
2022-08-19T20:11:08.383Z,1.60
2022-08-19T20:13:41.449Z,1.50
2022-08-19T20:16:12.323Z,1.40
2022-08-19T20:18:44.636Z,2.00
2022-08-19T20:21:15.489Z,1.80
2022-08-19T20:24:08.766Z,1.63
2022-08-19T20:26:41.347Z,1.83
2022-08-19T20:29:19.290Z,1.90
2022-08-19T20:32:06.024Z,2.07
2022-08-19T20:34:36.767Z,1.60
2022-08-19T20:37:09.938Z,2.13
2022-08-19T20:39:42.400Z,2.03
2022-08-19T20:42:13.124Z,2.43
2022-08-19T20:44:43.843Z,2.57
2022-08-19T20:47:14.589Z,1.90
2022-08-19T20:49:45.304Z,2.20
2022-08-19T20:52:16.272Z,2.40
2022-08-19T20:54:49.960Z,2.60
2022-08-19T20:57:20.685Z,2.80
2022-08-19T20:59:51.635Z,2.47
2022-08-19T21:02:23.516Z,2.53
2022-08-19T21:04:54.417Z,2.57
2022-08-19T21:07:39.170Z,2.73
2022-08-19T21:10:12.665Z,3.03
2022-08-19T21:12:45.132Z,2.90
2022-08-19T21:15:15.975Z,3.03
2022-08-19T21:17:49.572Z,2.63
2022-08-19T21:20:20.841Z,3.30
2022-08-19T21:22:51.915Z,3.23
2022-08-19T21:25:24.278Z,3.20
2022-08-19T21:27:55.113Z,2.97
2022-08-19T21:30:25.917Z,3.30
2022-08-19T21:32:56.853Z,3.27
2022-08-19T21:35:27.923Z,3.57
2022-08-19T21:37:58.901Z,3.10
2022-08-19T21:40:31.494Z,4.10
2022-08-19T21:43:02.927Z,3.80
2022-08-19T21:45:33.676Z,3.33
2022-08-19T21:48:04.648Z,2.97
2022-08-19T21:50:35.689Z,3.37
2022-08-19T21:53:06.437Z,4.17
2022-08-19T21:55:38.813Z,4.70
2022-08-19T21:58:09.555Z,3.83
2022-08-19T22:00:40.535Z,3.97
2022-08-19T22:03:11.408Z,4.40
2022-08-19T22:05:42.109Z,4.50
2022-08-19T22:08:14.437Z,3.93
2022-08-19T22:10:46.854Z,4.47
2022-08-19T22:13:18.905Z,4.40
2022-08-19T22:15:49.949Z,3.83
2022-08-19T22:18:20.720Z,4.47
2022-08-19T22:20:51.826Z,4.73
2022-08-19T22:23:22.640Z,4.20
2022-08-19T22:25:55.076Z,4.90
2022-08-19T22:28:27.701Z,4.80
2022-08-19T22:30:58.985Z,4.70
2022-08-19T22:33:30.624Z,4.60
2022-08-19T22:36:01.727Z,3.70
2022-08-19T22:38:32.764Z,4.90
2022-08-19T22:41:07.551Z,4.60
2022-08-19T22:43:39.295Z,4.87
2022-08-19T22:46:17.412Z,4.37
2022-08-19T22:48:56.729Z,4.40
2022-08-19T22:51:49.128Z,4.40
2022-08-19T22:54:20.162Z,4.67
2022-08-19T22:56:52.759Z,4.33
2022-08-19T22:59:23.521Z,4.80
2022-08-19T23:01:54.515Z,5.20
2022-08-19T23:04:25.387Z,5.10
2022-08-19T23:06:56.138Z,5.30
2022-08-19T23:09:31.517Z,4.27
2022-08-19T23:12:03.918Z,5.37
2022-08-19T23:14:35.167Z,5.00
2022-08-19T23:17:06.233Z,5.13
2022-08-19T23:19:37.092Z,5.20
2022-08-19T23:22:09.134Z,5.07
2022-08-19T23:24:39.868Z,5.03
2022-08-19T23:27:29.715Z,5.03
2022-08-19T23:30:25.607Z,5.03
2022-08-19T23:32:56.471Z,4.27
2022-08-19T23:35:28.207Z,4.70
2022-08-19T23:37:58.965Z,4.67
2022-08-19T23:40:29.747Z,4.60
2022-08-19T23:43:03.662Z,4.53
2022-08-19T23:45:50.901Z,4.70
2022-08-19T23:48:22.020Z,4.93
2022-08-19T23:50:53.520Z,4.70
2022-08-19T23:53:24.387Z,4.40
2022-08-19T23:55:55.263Z,4.93
2022-08-19T23:58:30.362Z,4.97
